Terminal Aerodrome Forecast
Issued by NWS

Home | Current Version | Previous Version | Text Only | Print | Product List | Glossary On
Versions: 1 2 3 4 5 6 7 8 9 10 11 12 13
000
FTUS44 KSJT 281737
TAFBBD
TAF
KBBD 281737Z 2818/2918 16010G16KT P6SM SCT040
     FM282300 14011KT P6SM VCTS BKN050CB
     FM290500 13008KT P6SM SCT070 BKN120
     FM290900 14007KT P6SM BKN015
     FM291600 15010KT P6SM BKN025
      AMD NOT SKED=

USA.gov is the U.S. government's official web portal to all federal, state and local government web resources and services.